Time;durP1;ratioP1;P1;durP2;ratioP2;P2;SDS_P1;SDS_P2;PMS_P1;PMS_P2;Temp;Humidity;BMP_temperature;BMP_pressure;BME280_temperature;BME280_humidity;BME280_pressure;Samples;Min_cycle;Max_cycle;Signal;HPM_P1;HPM_P2
2023/09/25 00:00:46;;;;;;;0.00;0.00;;;23.40;93.80;;;;;;5078629;28;20511;-74
2023/09/25 00:03:12;;;;;;;0.00;0.00;;;23.40;93.80;;;;;;5072229;28;20463;-74
2023/09/25 00:05:39;;;;;;;0.00;0.00;;;23.40;93.80;;;;;;5050918;28;21206;-74
2023/09/25 00:08:06;;;;;;;0.00;0.00;;;23.30;93.80;;;;;;5083852;28;20507;-74
2023/09/25 00:10:35;;;;;;;0.00;0.00;;;23.30;93.90;;;;;;5083086;28;20399;-74
2023/09/25 00:13:02;;;;;;;0.00;0.00;;;23.30;93.80;;;;;;5070018;28;20422;-74
2023/09/25 00:15:30;;;;;;;0.00;0.00;;;23.30;93.70;;;;;;5079129;28;20417;-74
2023/09/25 00:17:58;;;;;;;0.00;0.00;;;23.30;93.90;;;;;;5050884;28;20744;-74
2023/09/25 00:20:25;;;;;;;0.00;0.00;;;23.30;94.00;;;;;;5070004;28;20410;-74
2023/09/25 00:22:53;;;;;;;0.00;0.00;;;23.30;94.00;;;;;;5063082;28;20427;-75
2023/09/25 00:25:20;;;;;;;0.00;0.00;;;23.30;93.90;;;;;;5035342;28;20424;-74
2023/09/25 00:27:47;;;;;;;0.00;0.00;;;23.30;93.80;;;;;;5046688;28;20444;-74
2023/09/25 00:30:14;;;;;;;0.00;0.00;;;23.30;93.90;;;;;;5064752;28;20409;-75
2023/09/25 00:32:41;;;;;;;0.00;0.00;;;23.30;93.90;;;;;;5066620;28;20911;-74
2023/09/25 00:35:10;;;;;;;0.00;0.00;;;23.30;93.90;;;;;;5055381;28;20413;-74
2023/09/25 00:37:39;;;;;;;0.00;0.00;;;23.20;93.80;;;;;;5069323;28;20978;-74
2023/09/25 00:40:18;;;;;;;0.00;0.00;;;23.20;93.80;;;;;;5093121;28;20425;-74
2023/09/25 00:42:54;;;;;;;0.00;0.00;;;23.20;93.80;;;;;;5050097;28;20452;-74
2023/09/25 00:45:22;;;;;;;0.00;0.00;;;23.20;93.80;;;;;;5079000;28;20510;-75
2023/09/25 00:47:51;;;;;;;0.00;0.00;;;23.20;93.70;;;;;;5045543;28;20418;-74
2023/09/25 00:50:19;;;;;;;0.00;0.00;;;23.20;93.80;;;;;;5086268;28;20522;-74
2023/09/25 00:52:48;;;;;;;0.00;0.00;;;23.20;93.70;;;;;;5032625;28;20406;-74
2023/09/25 00:55:16;;;;;;;0.00;0.00;;;23.20;93.60;;;;;;5059862;28;20413;-74
2023/09/25 00:57:51;;;;;;;0.00;0.00;;;23.20;93.70;;;;;;5091511;28;20943;-74
2023/09/25 01:00:17;;;;;;;0.00;0.00;;;23.20;93.80;;;;;;5052474;28;20495;-74
2023/09/25 01:02:46;;;;;;;0.00;0.00;;;23.20;93.70;;;;;;5057107;28;20416;-74
2023/09/25 01:05:12;;;;;;;0.00;0.00;;;23.10;93.70;;;;;;5041771;28;20816;-75
2023/09/25 01:07:40;;;;;;;0.00;0.00;;;23.10;93.70;;;;;;5048643;28;20415;-74
2023/09/25 01:10:17;;;;;;;0.00;0.00;;;23.10;93.60;;;;;;5069178;28;20419;-74
2023/09/25 01:12:47;;;;;;;0.00;0.00;;;23.00;93.70;;;;;;5051169;28;20418;-74
2023/09/25 01:15:16;;;;;;;0.00;0.00;;;23.00;93.70;;;;;;5039913;28;20537;-74
2023/09/25 01:17:43;;;;;;;0.00;0.00;;;23.00;93.60;;;;;;5082822;28;20447;-74
2023/09/25 01:20:17;;;;;;;0.00;0.00;;;22.90;93.70;;;;;;5085445;28;20498;-74
2023/09/25 01:22:49;;;;;;;0.00;0.00;;;22.90;93.90;;;;;;5072759;28;20413;-74
2023/09/25 01:25:17;;;;;;;0.00;0.00;;;22.90;93.80;;;;;;5074851;28;20431;-75
2023/09/25 01:27:47;;;;;;;0.00;0.00;;;22.90;93.90;;;;;;5050535;28;20413;-75
2023/09/25 01:30:16;;;;;;;0.00;0.00;;;22.90;93.90;;;;;;5077326;28;20859;-74
2023/09/25 01:32:45;;;;;;;0.00;0.00;;;22.90;93.90;;;;;;5063454;28;20397;-75
2023/09/25 01:35:18;;;;;;;0.00;0.00;;;22.80;93.80;;;;;;5066668;28;20440;-75
2023/09/25 01:37:48;;;;;;;0.00;0.00;;;22.80;93.90;;;;;;5045473;28;20415;-74
2023/09/25 01:40:17;;;;;;;0.00;0.00;;;22.80;94.00;;;;;;5048482;28;20479;-74
2023/09/25 01:42:48;;;;;;;0.00;0.00;;;22.80;93.90;;;;;;5068831;28;20464;-73
2023/09/25 01:45:19;;;;;;;0.00;0.00;;;22.80;93.90;;;;;;5077310;28;20434;-74
2023/09/25 01:47:50;;;;;;;0.00;0.00;;;22.80;93.80;;;;;;5068563;28;20485;-74
2023/09/25 01:50:19;;;;;;;0.00;0.00;;;22.70;93.80;;;;;;5068526;28;20453;-74
2023/09/25 01:52:50;;;;;;;0.00;0.00;;;22.70;93.80;;;;;;5082918;28;20422;-74
2023/09/25 01:55:17;;;;;;;0.00;0.00;;;22.80;93.80;;;;;;5094527;27;20455;-74
2023/09/25 01:57:43;;;;;;;0.00;0.00;;;22.80;93.70;;;;;;5067655;28;20436;-74
2023/09/25 02:00:12;;;;;;;0.00;0.00;;;22.80;93.60;;;;;;5065882;28;21270;-74
2023/09/25 02:02:42;;;;;;;0.00;0.00;;;22.80;93.70;;;;;;5081497;28;20489;-74
2023/09/25 02:05:09;;;;;;;0.00;0.00;;;22.80;93.70;;;;;;5061083;28;20413;-74
2023/09/25 02:07:35;;;;;;;0.00;0.00;;;22.80;93.80;;;;;;5044637;28;20499;-74
2023/09/25 02:10:02;;;;;;;0.00;0.00;;;22.80;93.80;;;;;;5050780;28;20735;-74
2023/09/25 02:12:29;;;;;;;0.00;0.00;;;22.80;93.70;;;;;;5044044;28;20460;-75
2023/09/25 02:15:00;;;;;;;0.00;0.00;;;22.80;93.70;;;;;;5060618;28;20401;-74
2023/09/25 02:17:29;;;;;;;0.00;0.00;;;22.80;93.60;;;;;;5061574;28;20403;-74
2023/09/25 02:20:03;;;;;;;0.00;0.00;;;22.80;93.50;;;;;;5074974;28;20468;-73
2023/09/25 02:22:29;;;;;;;0.00;0.00;;;22.80;93.50;;;;;;5046255;28;20437;-75
2023/09/25 02:24:57;;;;;;;0.00;0.00;;;22.80;93.50;;;;;;5063097;28;20416;-74
2023/09/25 02:27:23;;;;;;;0.00;0.00;;;22.80;93.50;;;;;;5045998;28;20521;-75
2023/09/25 02:29:49;;;;;;;0.00;0.00;;;22.80;93.30;;;;;;5043801;28;20505;-74
2023/09/25 02:32:18;;;;;;;0.00;0.00;;;22.80;93.40;;;;;;5037922;28;20399;-75
2023/09/25 02:34:44;;;;;;;0.00;0.00;;;22.80;93.40;;;;;;5048599;28;20479;-75
2023/09/25 02:37:13;;;;;;;0.00;0.00;;;22.80;93.40;;;;;;5068083;28;20402;-74
2023/09/25 02:39:40;;;;;;;0.00;0.00;;;22.80;93.10;;;;;;5051577;28;20427;-75
2023/09/25 02:42:09;;;;;;;0.00;0.00;;;22.80;93.30;;;;;;5040930;28;20411;-74
2023/09/25 02:44:35;;;;;;;0.00;0.00;;;22.80;93.50;;;;;;5060225;28;20482;-74
2023/09/25 02:47:02;;;;;;;0.00;0.00;;;22.80;93.40;;;;;;5063697;28;20437;-74
2023/09/25 02:49:28;;;;;;;0.00;0.00;;;22.80;93.40;;;;;;5056213;28;20421;-74
2023/09/25 02:51:55;;;;;;;0.00;0.00;;;22.80;93.40;;;;;;5035064;28;20980;-74
2023/09/25 02:54:21;;;;;;;0.00;0.00;;;22.80;93.50;;;;;;5057055;28;21218;-75
2023/09/25 02:56:48;;;;;;;0.00;0.00;;;22.80;93.60;;;;;;5059493;28;20569;-75
2023/09/25 02:59:16;;;;;;;0.00;0.00;;;22.80;93.40;;;;;;5038082;28;20438;-75
2023/09/25 03:01:44;;;;;;;0.00;0.00;;;22.80;93.40;;;;;;5070531;28;20419;-75
2023/09/25 03:04:12;;;;;;;0.00;0.00;;;22.80;93.30;;;;;;5068270;28;20468;-75
2023/09/25 03:06:38;;;;;;;0.00;0.00;;;22.80;93.30;;;;;;5068715;28;20415;-75
2023/09/25 03:09:06;;;;;;;0.00;0.00;;;22.80;93.30;;;;;;5072930;28;20916;-75
2023/09/25 03:11:32;;;;;;;0.00;0.00;;;22.80;93.50;;;;;;5069850;28;20416;-75
2023/09/25 03:13:59;;;;;;;0.00;0.00;;;22.80;93.50;;;;;;5067103;28;20410;-75
2023/09/25 03:16:27;;;;;;;0.00;0.00;;;22.80;93.60;;;;;;5099351;28;20415;-74
2023/09/25 03:18:54;;;;;;;0.00;0.00;;;22.80;93.60;;;;;;5054485;28;20433;-75
2023/09/25 03:21:22;;;;;;;0.00;0.00;;;22.80;93.30;;;;;;5057530;28;20842;-75
2023/09/25 03:23:49;;;;;;;0.00;0.00;;;22.80;93.30;;;;;;5054389;28;20413;-75
2023/09/25 03:26:18;;;;;;;0.00;0.00;;;22.80;93.60;;;;;;5044233;28;20481;-75
2023/09/25 03:28:46;;;;;;;0.00;0.00;;;22.80;93.10;;;;;;5063513;28;20793;-75
2023/09/25 03:31:14;;;;;;;0.00;0.00;;;22.80;93.10;;;;;;5069974;28;20494;-75
2023/09/25 03:33:44;;;;;;;0.08;0.08;;;22.80;93.20;;;;;;5054217;28;20446;-75
2023/09/25 03:36:11;;;;;;;0.00;0.00;;;22.80;93.10;;;;;;5070124;28;20398;-75
2023/09/25 03:38:38;;;;;;;0.00;0.00;;;22.80;93.00;;;;;;5084889;28;20409;-75
2023/09/25 03:41:06;;;;;;;0.00;0.00;;;22.80;93.00;;;;;;5082200;28;20422;-75
2023/09/25 03:43:34;;;;;;;0.00;0.00;;;22.80;92.70;;;;;;5064407;28;20405;-75
2023/09/25 03:46:01;;;;;;;0.00;0.00;;;22.80;93.00;;;;;;5069001;28;20408;-74
2023/09/25 03:48:28;;;;;;;0.00;0.00;;;22.80;92.90;;;;;;5072938;28;20425;-75
2023/09/25 03:50:55;;;;;;;0.08;0.08;;;22.80;92.90;;;;;;5086345;28;20496;-75
2023/09/25 03:53:21;;;;;;;0.00;0.00;;;22.80;92.90;;;;;;5039280;28;20415;-75
2023/09/25 03:55:48;;;;;;;0.00;0.00;;;22.80;92.90;;;;;;5101238;27;20410;-74
2023/09/25 03:58:15;;;;;;;0.00;0.00;;;22.80;93.00;;;;;;5072166;28;20410;-75
2023/09/25 04:00:41;;;;;;;0.00;0.00;;;22.80;93.00;;;;;;5042648;28;20429;-75
2023/09/25 04:03:08;;;;;;;0.00;0.00;;;22.80;93.00;;;;;;5052183;28;20418;-75
2023/09/25 04:05:34;;;;;;;0.00;0.00;;;22.80;93.10;;;;;;5074586;28;20820;-75
2023/09/25 04:08:01;;;;;;;0.00;0.00;;;22.80;93.10;;;;;;5087492;28;20403;-75
2023/09/25 04:10:27;;;;;;;0.00;0.00;;;22.80;93.10;;;;;;5065965;28;21099;-75
2023/09/25 04:12:55;;;;;;;0.00;0.00;;;22.80;93.30;;;;;;5041657;28;20399;-74
2023/09/25 04:15:24;;;;;;;0.00;0.00;;;22.80;93.50;;;;;;5048496;28;20418;-75
2023/09/25 04:17:53;;;;;;;0.00;0.00;;;22.80;93.60;;;;;;5090517;28;20409;-75
2023/09/25 04:20:24;;;;;;;0.00;0.00;;;22.80;93.60;;;;;;5053962;28;20418;-75
2023/09/25 04:22:56;;;;;;;0.00;0.00;;;22.80;93.50;;;;;;5097922;28;20979;-75
2023/09/25 04:25:22;;;;;;;0.00;0.00;;;22.80;93.50;;;;;;5087793;28;20833;-75
2023/09/25 04:27:54;;;;;;;0.00;0.00;;;22.80;93.50;;;;;;5083204;28;20397;-75
2023/09/25 04:30:23;;;;;;;0.00;0.00;;;22.80;93.40;;;;;;5067361;28;20982;-75
2023/09/25 04:32:54;;;;;;;0.00;0.00;;;22.80;93.40;;;;;;5069623;28;20411;-75
2023/09/25 04:35:22;;;;;;;0.00;0.00;;;22.80;93.50;;;;;;5072271;28;20437;-75
2023/09/25 04:37:49;;;;;;;0.00;0.00;;;22.90;93.40;;;;;;5056214;28;21147;-74
2023/09/25 04:40:25;;;;;;;0.00;0.00;;;22.90;93.40;;;;;;5055876;28;21060;-74
2023/09/25 04:42:53;;;;;;;0.00;0.00;;;23.00;93.30;;;;;;5056752;28;20402;-74
2023/09/25 04:45:21;;;;;;;0.00;0.00;;;23.00;93.80;;;;;;5091118;28;20405;-74
2023/09/25 04:47:48;;;;;;;0.00;0.00;;;23.00;93.50;;;;;;5039144;28;20910;-74
2023/09/25 04:50:16;;;;;;;0.00;0.00;;;23.00;93.60;;;;;;5053189;28;20438;-75
2023/09/25 04:52:46;;;;;;;0.00;0.00;;;23.10;93.80;;;;;;5036275;28;20399;-75
2023/09/25 04:55:15;;;;;;;0.00;0.00;;;23.20;93.90;;;;;;5037789;28;20796;-74
2023/09/25 04:57:46;;;;;;;0.00;0.00;;;23.20;94.00;;;;;;5068526;28;20426;-75
2023/09/25 05:00:25;;;;;;;0.00;0.00;;;23.20;94.20;;;;;;5045221;28;20505;-75
2023/09/25 05:02:53;;;;;;;0.00;0.00;;;23.30;94.50;;;;;;5055968;28;20899;-75
2023/09/25 05:05:20;;;;;;;0.00;0.00;;;23.30;94.60;;;;;;5056303;28;20481;-75
2023/09/25 05:07:49;;;;;;;0.00;0.00;;;23.40;94.70;;;;;;5055770;28;20911;-74
2023/09/25 05:10:22;;;;;;;0.00;0.00;;;23.50;95.00;;;;;;5070706;28;20793;-74
2023/09/25 05:12:52;;;;;;;0.00;0.00;;;23.50;95.10;;;;;;5081643;28;20482;-74
2023/09/25 05:15:21;;;;;;;0.00;0.00;;;23.50;95.30;;;;;;5051561;28;20416;-74
2023/09/25 05:17:50;;;;;;;0.00;0.00;;;23.60;95.30;;;;;;5071399;28;20467;-74
2023/09/25 05:20:24;;;;;;;0.00;0.00;;;23.60;95.40;;;;;;5053469;28;20439;-75
2023/09/25 05:22:57;;;;;;;0.00;0.00;;;23.70;95.70;;;;;;5100744;28;20510;-74
2023/09/25 05:25:26;;;;;;;0.00;0.00;;;23.70;95.90;;;;;;5076492;28;20415;-75
2023/09/25 05:27:59;;;;;;;0.00;0.00;;;23.80;96.20;;;;;;5054098;28;20462;-74
2023/09/25 05:30:28;;;;;;;0.00;0.00;;;23.80;96.20;;;;;;5073226;28;20432;-74
2023/09/25 05:32:58;;;;;;;0.00;0.00;;;23.80;96.10;;;;;;5041873;28;20403;-75
2023/09/25 05:35:26;;;;;;;0.00;0.00;;;23.90;96.00;;;;;;5090139;28;20404;-74
2023/09/25 05:37:58;;;;;;;0.00;0.00;;;23.90;95.10;;;;;;5086341;28;20428;-75
2023/09/25 05:40:24;;;;;;;0.00;0.00;;;24.00;94.10;;;;;;5037786;28;20450;-74
2023/09/25 05:42:54;;;;;;;0.00;0.00;;;24.00;94.00;;;;;;5072710;28;20455;-75
2023/09/25 05:45:21;;;;;;;0.00;0.00;;;24.10;93.60;;;;;;5072322;28;20441;-74
2023/09/25 05:47:49;;;;;;;0.00;0.00;;;24.10;94.10;;;;;;5066457;28;21085;-73
2023/09/25 05:50:16;;;;;;;0.00;0.00;;;24.10;93.70;;;;;;5086123;28;20514;-74
2023/09/25 05:52:43;;;;;;;0.00;0.00;;;24.20;93.10;;;;;;5093793;28;20509;-74
2023/09/25 05:55:10;;;;;;;0.00;0.00;;;24.20;93.30;;;;;;5054831;28;20411;-75
2023/09/25 05:57:38;;;;;;;0.00;0.00;;;24.30;93.60;;;;;;5077115;28;20399;-74
2023/09/25 06:00:11;;;;;;;0.00;0.00;;;24.30;94.40;;;;;;5087237;28;20402;-74
2023/09/25 06:02:42;;;;;;;0.00;0.00;;;24.30;94.20;;;;;;5082803;28;20911;-74
2023/09/25 06:05:15;;;;;;;0.00;0.00;;;24.40;94.50;;;;;;5060393;28;20404;-74
2023/09/25 06:07:42;;;;;;;0.00;0.00;;;24.40;94.80;;;;;;5052049;28;20489;-74
2023/09/25 06:10:13;;;;;;;0.00;0.00;;;24.40;94.60;;;;;;5044412;28;20434;-74
2023/09/25 06:12:41;;;;;;;0.00;0.00;;;24.50;94.10;;;;;;5083075;28;20529;-74
2023/09/25 06:15:11;;;;;;;0.00;0.00;;;24.50;94.10;;;;;;5050665;28;20414;-74
2023/09/25 06:17:42;;;;;;;0.00;0.00;;;24.50;94.50;;;;;;5049923;28;20446;-75
2023/09/25 06:20:17;;;;;;;0.00;0.00;;;24.60;94.50;;;;;;5063244;28;20404;-74
2023/09/25 06:22:47;;;;;;;0.00;0.00;;;24.60;94.60;;;;;;5056773;28;20819;-74
2023/09/25 06:25:19;;;;;;;0.00;0.00;;;24.60;94.70;;;;;;5080695;28;20402;-74
2023/09/25 06:27:47;;;;;;;0.00;0.00;;;24.70;95.00;;;;;;5081247;28;20956;-75
2023/09/25 06:30:16;;;;;;;0.00;0.00;;;24.70;95.10;;;;;;5063915;28;20419;-74
2023/09/25 06:32:43;;;;;;;0.00;0.00;;;24.80;94.90;;;;;;5051286;28;20936;-74
2023/09/25 06:35:12;;;;;;;0.00;0.00;;;24.90;94.70;;;;;;5046873;28;20442;-75
2023/09/25 06:37:40;;;;;;;0.00;0.00;;;24.90;94.60;;;;;;5075771;28;20409;-74
2023/09/25 06:40:10;;;;;;;0.00;0.00;;;24.90;94.50;;;;;;5030152;28;20410;-74
2023/09/25 06:42:38;;;;;;;0.00;0.00;;;25.00;94.60;;;;;;5069272;28;20963;-75
2023/09/25 06:45:06;;;;;;;0.00;0.00;;;25.10;94.60;;;;;;5049924;28;20474;-74
2023/09/25 06:47:34;;;;;;;0.00;0.00;;;25.10;94.80;;;;;;5043427;28;20463;-75
2023/09/25 06:50:01;;;;;;;0.00;0.00;;;25.20;94.60;;;;;;5065005;28;20519;-74
2023/09/25 06:52:29;;;;;;;0.00;0.00;;;25.20;94.30;;;;;;5079648;28;20445;-75
2023/09/25 06:54:56;;;;;;;0.00;0.00;;;25.30;95.00;;;;;;5063526;28;20450;-74
2023/09/25 06:57:26;;;;;;;0.00;0.00;;;25.30;95.10;;;;;;5071571;28;20801;-74
2023/09/25 06:59:54;;;;;;;0.00;0.00;;;25.40;95.10;;;;;;5046916;28;20582;-75
2023/09/25 07:02:25;;;;;;;0.03;0.03;;;25.40;94.70;;;;;;5043815;28;20489;-75
2023/09/25 07:04:52;;;;;;;0.00;0.00;;;25.50;94.50;;;;;;5067188;28;20508;-74
2023/09/25 07:07:18;;;;;;;0.00;0.00;;;25.60;94.80;;;;;;5051233;28;20405;-74
2023/09/25 07:09:45;;;;;;;0.00;0.00;;;25.60;94.70;;;;;;5047781;28;20436;-75
2023/09/25 07:12:14;;;;;;;0.00;0.00;;;25.60;94.60;;;;;;5052106;28;21015;-75
2023/09/25 07:14:56;;;;;;;0.00;0.00;;;25.70;94.40;;;;;;5061791;28;20415;-74
2023/09/25 07:17:23;;;;;;;0.00;0.00;;;25.80;94.70;;;;;;5069720;28;20756;-74
2023/09/25 07:19:55;;;;;;;0.10;0.10;;;25.90;94.30;;;;;;5044202;28;20450;-74
2023/09/25 07:22:25;;;;;;;0.00;0.00;;;26.00;95.20;;;;;;5048224;28;20420;-75
2023/09/25 07:24:54;;;;;;;0.10;0.10;;;26.00;95.30;;;;;;5066095;28;20730;-75
2023/09/25 07:27:23;;;;;;;0.00;0.00;;;26.10;95.70;;;;;;5058543;28;20506;-75
2023/09/25 07:29:51;;;;;;;0.00;0.00;;;26.10;96.20;;;;;;5055427;28;20738;-75
2023/09/25 07:32:18;;;;;;;0.00;0.00;;;26.20;95.80;;;;;;5060118;28;20417;-75
2023/09/25 07:34:45;;;;;;;0.10;0.10;;;26.30;96.20;;;;;;5066869;28;20508;-74
2023/09/25 07:37:13;;;;;;;0.00;0.00;;;26.30;96.80;;;;;;5082541;28;20411;-76
2023/09/25 07:39:41;;;;;;;0.07;0.07;;;26.40;96.90;;;;;;5072963;28;20425;-76
2023/09/25 07:42:10;;;;;;;0.00;0.00;;;26.50;96.60;;;;;;5054933;28;20421;-76
2023/09/25 07:44:39;;;;;;;0.00;0.00;;;26.60;96.70;;;;;;5041374;28;20405;-76
2023/09/25 07:47:06;;;;;;;0.00;0.00;;;26.60;96.70;;;;;;5053774;28;20421;-75
2023/09/25 07:49:40;;;;;;;0.00;0.00;;;26.60;96.50;;;;;;5040425;28;20437;-76
2023/09/25 07:52:15;;;;;;;0.00;0.00;;;26.70;96.20;;;;;;5044025;28;20410;-76
2023/09/25 07:54:51;;;;;;;0.10;0.10;;;26.80;96.30;;;;;;5062033;28;20411;-76
2023/09/25 07:57:22;;;;;;;0.10;0.10;;;26.80;96.50;;;;;;5081465;28;20796;-76
2023/09/25 07:59:49;;;;;;;0.00;0.00;;;26.80;96.20;;;;;;5027814;28;20415;-76
2023/09/25 08:02:18;;;;;;;0.00;0.00;;;26.90;97.00;;;;;;5057069;28;20427;-75
2023/09/25 08:04:45;;;;;;;0.00;0.00;;;27.00;97.50;;;;;;5041867;28;20415;-76
2023/09/25 08:07:12;;;;;;;0.05;0.05;;;27.00;98.10;;;;;;5085322;28;20423;-76
2023/09/25 08:19:10;;;;;;;0.00;0.00;;;27.20;99.10;;;;;;5093059;27;20382;-74
2023/09/25 08:21:45;;;;;;;0.00;0.00;;;27.30;99.60;;;;;;5077932;28;20428;-75
2023/09/25 08:24:14;;;;;;;0.00;0.00;;;27.30;99.90;;;;;;5057873;28;20412;-75
2023/09/25 08:26:46;;;;;;;0.00;0.00;;;27.30;99.90;;;;;;5084647;28;20946;-75
2023/09/25 08:29:17;;;;;;;0.10;0.10;;;27.40;99.90;;;;;;5069038;28;20401;-75
2023/09/25 08:31:50;;;;;;;0.00;0.00;;;27.50;99.90;;;;;;5068934;28;20497;-75
2023/09/25 08:34:17;;;;;;;0.10;0.10;;;27.60;99.90;;;;;;5050008;28;20417;-75
2023/09/25 08:36:45;;;;;;;0.00;0.00;;;27.70;99.90;;;;;;5074566;28;20730;-74
2023/09/25 08:39:13;;;;;;;0.00;0.00;;;27.80;99.90;;;;;;5083724;28;20410;-74
2023/09/25 08:41:41;;;;;;;0.10;0.10;;;27.90;99.90;;;;;;5064739;28;20447;-75
2023/09/25 08:44:13;;;;;;;0.00;0.00;;;27.90;99.90;;;;;;5065568;28;21257;-75
2023/09/25 08:46:40;;;;;;;0.00;0.00;;;28.00;99.90;;;;;;5086371;28;20401;-75
2023/09/25 08:49:08;;;;;;;0.10;0.10;;;28.10;99.90;;;;;;5059313;28;20419;-75
2023/09/25 08:51:39;;;;;;;0.10;0.10;;;28.20;99.90;;;;;;5053389;28;20851;-75
2023/09/25 08:54:08;;;;;;;0.00;0.00;;;28.20;99.90;;;;;;5087247;28;20401;-75
2023/09/25 08:56:39;;;;;;;0.10;0.10;;;28.30;99.90;;;;;;5075773;28;20490;-76
2023/09/25 08:59:06;;;;;;;0.10;0.10;;;28.40;99.90;;;;;;5101296;28;20410;-76
2023/09/25 09:01:33;;;;;;;0.00;0.00;;;28.40;99.90;;;;;;5076986;28;20939;-76
2023/09/25 09:04:00;;;;;;;0.10;0.10;;;28.50;99.90;;;;;;5068286;28;20418;-76
2023/09/25 09:06:26;;;;;;;0.00;0.00;;;28.60;99.90;;;;;;5077214;28;20393;-76
2023/09/25 09:08:53;;;;;;;0.10;0.10;;;28.70;99.90;;;;;;5076005;28;20428;-76
2023/09/25 09:11:21;;;;;;;0.10;0.10;;;28.80;99.90;;;;;;5069752;28;20393;-76
2023/09/25 09:13:49;;;;;;;0.10;0.10;;;28.90;99.90;;;;;;5099946;28;20763;-75
2023/09/25 09:16:20;;;;;;;0.10;0.10;;;29.00;99.90;;;;;;5049123;28;20395;-75
2023/09/25 09:18:48;;;;;;;0.10;0.10;;;29.00;99.90;;;;;;5053890;28;20410;-75
2023/09/25 09:21:27;;;;;;;0.08;0.08;;;29.10;99.90;;;;;;5084201;28;20393;-75
2023/09/25 09:23:56;;;;;;;0.10;0.10;;;29.30;99.90;;;;;;5057167;28;20423;-75
2023/09/25 09:26:25;;;;;;;0.10;0.10;;;29.30;99.90;;;;;;5075970;28;20415;-75
2023/09/25 09:28:54;;;;;;;0.10;0.10;;;29.40;99.90;;;;;;5077015;28;20770;-75
2023/09/25 09:31:21;;;;;;;0.10;0.10;;;29.50;99.90;;;;;;5051554;28;20503;-75
2023/09/25 09:33:48;;;;;;;0.10;0.10;;;29.70;99.90;;;;;;5045759;28;20463;-75
2023/09/25 09:36:15;;;;;;;0.10;0.10;;;29.80;99.90;;;;;;5070347;28;20406;-76
2023/09/25 09:38:46;;;;;;;0.10;0.10;;;29.90;99.90;;;;;;5055198;28;20766;-76
2023/09/25 09:41:14;;;;;;;0.10;0.10;;;30.10;99.90;;;;;;5068801;28;20487;-76
2023/09/25 09:43:48;;;;;;;0.10;0.10;;;30.20;99.90;;;;;;5087377;28;20444;-76
2023/09/25 09:46:17;;;;;;;0.10;0.10;;;30.30;99.90;;;;;;5055104;28;20524;-76
2023/09/25 09:48:47;;;;;;;0.10;0.10;;;30.40;99.90;;;;;;5071148;28;20876;-76
2023/09/25 09:51:18;;;;;;;0.10;0.10;;;30.60;99.90;;;;;;5063311;28;20730;-76
2023/09/25 09:53:45;;;;;;;0.10;0.10;;;30.70;99.90;;;;;;5052128;28;20493;-75
2023/09/25 09:56:15;;;;;;;0.10;0.10;;;30.70;99.90;;;;;;5063530;28;20410;-75
2023/09/25 09:58:43;;;;;;;0.20;0.20;;;30.80;99.90;;;;;;5054140;28;20467;-75
2023/09/25 10:01:09;;;;;;;0.10;0.10;;;30.90;99.90;;;;;;5042486;28;20387;-75
2023/09/25 10:03:36;;;;;;;0.10;0.10;;;31.00;99.90;;;;;;5054846;28;20410;-75
2023/09/25 10:06:05;;;;;;;0.10;0.10;;;31.10;99.90;;;;;;5066526;28;20398;-75
2023/09/25 10:08:31;;;;;;;0.10;0.10;;;31.30;99.90;;;;;;5071616;28;20451;-75
2023/09/25 10:11:23;;;;;;;0.20;0.20;;;31.40;99.90;;;;;;5050183;28;20497;-75
2023/09/25 10:14:03;;;;;;;0.10;0.10;;;31.60;99.90;;;;;;5038265;28;20426;-75
2023/09/25 10:17:07;;;;;;;0.10;0.10;;;31.70;99.90;;;;;;5071041;28;20441;-76
2023/09/25 10:19:40;;;;;;;0.13;0.13;;;31.60;99.90;;;;;;5049004;28;20442;-75
2023/09/25 10:22:23;;;;;;;0.10;0.10;;;31.60;99.90;;;;;;5051127;28;20400;-75
2023/09/25 10:25:12;;;;;;;0.10;0.10;;;31.60;99.90;;;;;;5051965;28;20401;-75
2023/09/25 10:27:40;;;;;;;0.15;0.15;;;31.50;99.90;;;;;;5047326;28;20407;-75
2023/09/25 10:30:18;;;;;;;0.10;0.10;;;31.50;99.90;;;;;;5046607;28;20431;-75
2023/09/25 10:32:56;;;;;;;0.10;0.10;;;31.50;99.90;;;;;;5047150;28;20932;-76
2023/09/25 10:35:44;;;;;;;0.10;0.10;;;31.50;99.90;;;;;;5014292;28;20713;-75
2023/09/25 10:38:25;;;;;;;0.10;0.10;;;31.40;99.90;;;;;;5031575;28;20403;-75
2023/09/25 10:40:59;;;;;;;0.10;0.10;;;31.40;99.90;;;;;;5067221;28;20415;-76
2023/09/25 10:43:26;;;;;;;0.10;0.10;;;31.30;99.90;;;;;;5033907;28;20849;-75
2023/09/25 10:45:54;;;;;;;0.10;0.10;;;31.20;99.90;;;;;;5047415;28;20428;-75
2023/09/25 10:48:23;;;;;;;0.10;0.10;;;31.20;99.90;;;;;;5046847;28;20417;-75
2023/09/25 10:50:50;;;;;;;0.10;0.10;;;31.20;99.90;;;;;;5017201;28;20415;-75
2023/09/25 10:53:17;;;;;;;0.10;0.10;;;31.20;99.90;;;;;;5050087;28;20400;-76
2023/09/25 10:55:44;;;;;;;0.10;0.10;;;31.30;99.90;;;;;;5040542;28;20423;-75
2023/09/25 10:58:13;;;;;;;0.10;0.10;;;31.30;99.90;;;;;;5046232;28;20415;-75
2023/09/25 11:00:42;;;;;;;0.10;0.10;;;31.20;99.90;;;;;;5033151;28;20416;-75
2023/09/25 11:03:09;;;;;;;0.10;0.10;;;31.20;99.90;;;;;;5050360;28;20426;-75
2023/09/25 11:05:39;;;;;;;0.10;0.10;;;31.20;99.90;;;;;;5033334;28;20399;-75
2023/09/25 11:08:13;;;;;;;0.10;0.10;;;31.20;99.90;;;;;;5040602;28;20415;-74
2023/09/25 11:10:41;;;;;;;0.10;0.10;;;31.20;99.90;;;;;;5030818;28;20417;-75
2023/09/25 11:13:09;;;;;;;0.10;0.10;;;31.30;99.90;;;;;;5020202;28;20404;-75
2023/09/25 11:15:39;;;;;;;0.10;0.10;;;31.30;99.90;;;;;;5056405;28;20434;-75
2023/09/25 11:18:10;;;;;;;0.10;0.10;;;31.30;99.90;;;;;;5037653;28;20408;-75
2023/09/25 11:20:39;;;;;;;0.10;0.10;;;31.30;99.90;;;;;;5030120;28;20405;-75
2023/09/25 11:23:11;;;;;;;0.17;0.17;;;31.30;99.90;;;;;;5049824;28;20953;-75
2023/09/25 11:25:46;;;;;;;0.10;0.10;;;31.30;99.90;;;;;;5056313;28;20434;-75
2023/09/25 11:28:20;;;;;;;0.20;0.20;;;31.30;99.90;;;;;;5051637;28;20982;-75
2023/09/25 11:30:48;;;;;;;0.10;0.10;;;31.30;99.90;;;;;;5057634;28;21113;-75
2023/09/25 11:33:23;;;;;;;0.10;0.10;;;31.30;99.90;;;;;;5061387;28;20611;-75
2023/09/25 11:35:54;;;;;;;0.20;0.20;;;31.40;99.90;;;;;;5048276;28;20820;-75
2023/09/25 11:38:30;;;;;;;0.10;0.10;;;31.40;99.90;;;;;;5063191;28;20406;-75
2023/09/25 11:41:00;;;;;;;0.10;0.10;;;31.40;99.90;;;;;;5040356;28;20460;-75
2023/09/25 11:43:28;;;;;;;0.10;0.10;;;31.50;99.90;;;;;;5065986;28;20399;-75
2023/09/25 11:45:55;;;;;;;0.10;0.10;;;31.40;99.90;;;;;;5058469;28;20932;-75
2023/09/25 11:48:23;;;;;;;0.10;0.10;;;31.40;99.90;;;;;;5062314;28;20403;-75
2023/09/25 11:50:50;;;;;;;0.10;0.10;;;31.40;99.90;;;;;;5058818;28;20407;-75
2023/09/25 11:53:17;;;;;;;0.10;0.10;;;31.50;99.90;;;;;;5061699;28;20422;-74
2023/09/25 11:55:43;;;;;;;0.10;0.10;;;31.50;99.90;;;;;;5077627;28;20495;-75
2023/09/25 11:58:10;;;;;;;0.20;0.20;;;31.60;99.90;;;;;;5063028;28;20423;-75
2023/09/25 12:00:37;;;;;;;0.10;0.10;;;31.50;99.90;;;;;;5059562;28;20411;-75
2023/09/25 12:03:07;;;;;;;0.10;0.10;;;31.60;99.90;;;;;;5036372;28;20482;-76
2023/09/25 12:05:36;;;;;;;0.10;0.10;;;31.60;99.90;;;;;;5046950;28;20418;-76
2023/09/25 12:08:11;;;;;;;0.10;0.10;;;31.60;99.90;;;;;;5041641;28;20573;-76
2023/09/25 12:10:40;;;;;;;0.10;0.10;;;31.60;99.90;;;;;;5049580;28;20439;-76
2023/09/25 12:13:07;;;;;;;0.10;0.10;;;31.60;99.90;;;;;;5066770;28;20469;-76
2023/09/25 17:59:27;;;;;;;0.00;0.00;;;25.10;99.90;;;;;;5127425;27;20413;-74
2023/09/25 18:01:55;;;;;;;0.00;0.00;;;25.20;99.90;;;;;;5082756;28;20406;-74
2023/09/25 18:04:23;;;;;;;0.00;0.00;;;25.20;99.90;;;;;;5068574;28;20394;-74
2023/09/25 18:06:50;;;;;;;0.00;0.00;;;25.20;99.90;;;;;;5046588;28;20523;-75
2023/09/25 18:09:16;;;;;;;0.00;0.00;;;25.30;99.90;;;;;;5105929;28;20401;-74
2023/09/25 18:11:42;;;;;;;0.00;0.00;;;25.30;99.90;;;;;;5106411;28;20406;-74
2023/09/25 18:14:09;;;;;;;0.00;0.00;;;25.20;99.90;;;;;;5088404;28;20847;-74
2023/09/25 18:16:37;;;;;;;0.00;0.00;;;25.30;99.90;;;;;;5097052;28;20482;-75
2023/09/25 18:19:04;;;;;;;0.00;0.00;;;25.30;99.90;;;;;;5102296;28;20420;-74
2023/09/25 18:21:31;;;;;;;0.00;0.00;;;25.30;99.90;;;;;;5061140;28;20403;-74
2023/09/25 18:23:58;;;;;;;0.00;0.00;;;25.30;99.90;;;;;;5080244;28;20443;-74
2023/09/25 18:26:26;;;;;;;0.00;0.00;;;25.30;99.90;;;;;;5066218;28;20474;-74
2023/09/25 18:28:52;;;;;;;0.00;0.00;;;25.30;99.90;;;;;;5083726;28;20500;-73
2023/09/25 18:31:19;;;;;;;0.00;0.00;;;25.20;99.90;;;;;;5080006;28;20405;-74
2023/09/25 18:33:46;;;;;;;0.00;0.00;;;25.10;99.90;;;;;;5047219;28;20406;-74
2023/09/25 18:36:13;;;;;;;0.00;0.00;;;25.00;99.90;;;;;;5067052;28;20473;-74
2023/09/25 18:38:40;;;;;;;0.00;0.00;;;24.90;99.90;;;;;;5087381;28;20413;-74
2023/09/25 18:41:07;;;;;;;0.00;0.00;;;24.80;99.90;;;;;;5070458;28;20530;-75
2023/09/25 18:43:35;;;;;;;0.00;0.00;;;24.90;99.90;;;;;;5075695;28;20410;-75
2023/09/25 18:46:01;;;;;;;0.00;0.00;;;24.90;99.90;;;;;;5083635;28;20411;-75
2023/09/25 18:48:28;;;;;;;0.00;0.00;;;24.90;99.90;;;;;;5070532;28;20496;-75
2023/09/25 18:50:54;;;;;;;0.00;0.00;;;24.90;99.90;;;;;;5087497;28;20426;-75